sensor_id;sensor_type;location;lat;lon;timestamp;P1;durP1;ratioP1;P2;durP2;ratioP2
4365;SDS011;2196;47.422;9.656;2023-04-25T00:02:25;7.63;;;3.47;;
4365;SDS011;2196;47.422;9.656;2023-04-25T00:04:53;3.40;;;3.20;;
4365;SDS011;2196;47.422;9.656;2023-04-25T00:07:24;2.90;;;2.70;;
4365;SDS011;2196;47.422;9.656;2023-04-25T00:09:51;2.70;;;2.60;;
4365;SDS011;2196;47.422;9.656;2023-04-25T00:12:21;2.53;;;2.33;;
4365;SDS011;2196;47.422;9.656;2023-04-25T00:14:48;2.80;;;2.60;;
4365;SDS011;2196;47.422;9.656;2023-04-25T00:17:16;3.23;;;3.03;;
4365;SDS011;2196;47.422;9.656;2023-04-25T00:19:46;2.33;;;2.23;;
4365;SDS011;2196;47.422;9.656;2023-04-25T00:22:14;3.20;;;2.90;;
4365;SDS011;2196;47.422;9.656;2023-04-25T00:24:43;5.37;;;2.47;;
4365;SDS011;2196;47.422;9.656;2023-04-25T00:27:10;3.10;;;2.93;;
4365;SDS011;2196;47.422;9.656;2023-04-25T00:29:37;2.53;;;2.37;;
4365;SDS011;2196;47.422;9.656;2023-04-25T00:32:04;3.37;;;3.07;;
4365;SDS011;2196;47.422;9.656;2023-04-25T00:34:31;2.40;;;2.20;;
4365;SDS011;2196;47.422;9.656;2023-04-25T00:37:00;3.03;;;2.93;;
4365;SDS011;2196;47.422;9.656;2023-04-25T00:39:27;2.93;;;2.77;;
4365;SDS011;2196;47.422;9.656;2023-04-25T00:41:56;2.40;;;2.30;;
4365;SDS011;2196;47.422;9.656;2023-04-25T00:44:23;2.83;;;2.20;;
4365;SDS011;2196;47.422;9.656;2023-04-25T00:46:51;3.10;;;2.90;;
4365;SDS011;2196;47.422;9.656;2023-04-25T00:49:19;2.53;;;2.43;;
4365;SDS011;2196;47.422;9.656;2023-04-25T00:51:47;2.23;;;1.93;;
4365;SDS011;2196;47.422;9.656;2023-04-25T00:54:14;3.33;;;2.30;;
4365;SDS011;2196;47.422;9.656;2023-04-25T00:56:42;2.70;;;2.50;;
4365;SDS011;2196;47.422;9.656;2023-04-25T00:59:11;3.87;;;3.13;;
4365;SDS011;2196;47.422;9.656;2023-04-25T01:01:39;2.97;;;2.77;;
4365;SDS011;2196;47.422;9.656;2023-04-25T01:04:07;2.87;;;2.67;;
4365;SDS011;2196;47.422;9.656;2023-04-25T01:06:34;2.93;;;2.57;;
4365;SDS011;2196;47.422;9.656;2023-04-25T01:09:02;2.97;;;2.87;;
4365;SDS011;2196;47.422;9.656;2023-04-25T01:11:30;3.47;;;3.27;;
4365;SDS011;2196;47.422;9.656;2023-04-25T01:13:57;2.90;;;2.73;;
4365;SDS011;2196;47.422;9.656;2023-04-25T01:16:25;3.63;;;3.30;;
4365;SDS011;2196;47.422;9.656;2023-04-25T01:18:52;2.87;;;2.67;;
4365;SDS011;2196;47.422;9.656;2023-04-25T01:21:21;3.60;;;2.70;;
4365;SDS011;2196;47.422;9.656;2023-04-25T01:23:51;3.07;;;2.70;;
4365;SDS011;2196;47.422;9.656;2023-04-25T01:26:18;3.40;;;3.17;;
4365;SDS011;2196;47.422;9.656;2023-04-25T01:28:47;4.20;;;3.30;;
4365;SDS011;2196;47.422;9.656;2023-04-25T01:31:15;2.73;;;2.60;;
4365;SDS011;2196;47.422;9.656;2023-04-25T01:33:43;2.47;;;2.30;;
4365;SDS011;2196;47.422;9.656;2023-04-25T01:36:10;2.40;;;2.30;;
4365;SDS011;2196;47.422;9.656;2023-04-25T01:38:38;2.50;;;2.40;;
4365;SDS011;2196;47.422;9.656;2023-04-25T01:41:06;2.63;;;2.30;;
4365;SDS011;2196;47.422;9.656;2023-04-25T01:43:33;3.07;;;2.93;;
4365;SDS011;2196;47.422;9.656;2023-04-25T01:46:00;2.70;;;2.60;;
4365;SDS011;2196;47.422;9.656;2023-04-25T01:48:27;4.30;;;3.87;;
4365;SDS011;2196;47.422;9.656;2023-04-25T01:50:54;3.37;;;3.17;;
4365;SDS011;2196;47.422;9.656;2023-04-25T01:53:21;2.90;;;2.80;;
4365;SDS011;2196;47.422;9.656;2023-04-25T01:55:50;2.93;;;2.83;;
4365;SDS011;2196;47.422;9.656;2023-04-25T01:58:17;3.60;;;2.67;;
4365;SDS011;2196;47.422;9.656;2023-04-25T02:00:44;2.87;;;2.33;;
4365;SDS011;2196;47.422;9.656;2023-04-25T02:03:12;3.17;;;2.87;;
4365;SDS011;2196;47.422;9.656;2023-04-25T02:05:39;2.73;;;2.27;;
4365;SDS011;2196;47.422;9.656;2023-04-25T02:08:07;2.93;;;2.33;;
4365;SDS011;2196;47.422;9.656;2023-04-25T02:10:35;2.53;;;2.33;;
4365;SDS011;2196;47.422;9.656;2023-04-25T02:13:04;2.77;;;2.67;;
4365;SDS011;2196;47.422;9.656;2023-04-25T02:15:31;2.63;;;2.53;;
4365;SDS011;2196;47.422;9.656;2023-04-25T02:17:58;3.10;;;2.90;;
4365;SDS011;2196;47.422;9.656;2023-04-25T02:20:26;2.93;;;2.73;;
4365;SDS011;2196;47.422;9.656;2023-04-25T02:22:56;5.03;;;4.03;;
4365;SDS011;2196;47.422;9.656;2023-04-25T02:25:23;4.13;;;3.67;;
4365;SDS011;2196;47.422;9.656;2023-04-25T02:27:50;3.13;;;2.93;;
4365;SDS011;2196;47.422;9.656;2023-04-25T02:30:19;2.40;;;2.17;;
4365;SDS011;2196;47.422;9.656;2023-04-25T02:32:46;2.53;;;2.40;;
4365;SDS011;2196;47.422;9.656;2023-04-25T02:35:13;2.53;;;2.33;;
4365;SDS011;2196;47.422;9.656;2023-04-25T02:37:42;2.53;;;2.43;;
4365;SDS011;2196;47.422;9.656;2023-04-25T02:40:09;3.03;;;2.87;;
4365;SDS011;2196;47.422;9.656;2023-04-25T02:42:36;3.57;;;3.30;;
4365;SDS011;2196;47.422;9.656;2023-04-25T02:45:03;2.70;;;2.60;;
4365;SDS011;2196;47.422;9.656;2023-04-25T02:47:32;3.43;;;3.13;;
4365;SDS011;2196;47.422;9.656;2023-04-25T02:49:59;3.40;;;3.27;;
4365;SDS011;2196;47.422;9.656;2023-04-25T02:52:26;4.63;;;2.90;;
4365;SDS011;2196;47.422;9.656;2023-04-25T02:54:53;3.43;;;3.13;;
4365;SDS011;2196;47.422;9.656;2023-04-25T02:57:22;4.17;;;3.77;;
4365;SDS011;2196;47.422;9.656;2023-04-25T02:59:49;3.43;;;3.23;;
4365;SDS011;2196;47.422;9.656;2023-04-25T03:02:16;4.23;;;4.03;;
4365;SDS011;2196;47.422;9.656;2023-04-25T03:04:45;3.67;;;2.73;;
4365;SDS011;2196;47.422;9.656;2023-04-25T03:07:13;4.43;;;3.27;;
4365;SDS011;2196;47.422;9.656;2023-04-25T03:09:40;3.70;;;3.40;;
4365;SDS011;2196;47.422;9.656;2023-04-25T03:12:06;3.50;;;3.20;;
4365;SDS011;2196;47.422;9.656;2023-04-25T03:14:33;5.90;;;3.57;;
4365;SDS011;2196;47.422;9.656;2023-04-25T03:17:00;3.10;;;2.83;;
4365;SDS011;2196;47.422;9.656;2023-04-25T03:19:27;3.27;;;2.97;;
4365;SDS011;2196;47.422;9.656;2023-04-25T03:21:56;4.10;;;3.60;;
4365;SDS011;2196;47.422;9.656;2023-04-25T03:24:23;4.10;;;2.90;;
4365;SDS011;2196;47.422;9.656;2023-04-25T03:26:50;2.67;;;2.57;;
4365;SDS011;2196;47.422;9.656;2023-04-25T03:29:16;2.90;;;2.70;;
4365;SDS011;2196;47.422;9.656;2023-04-25T03:31:43;2.57;;;2.37;;
4365;SDS011;2196;47.422;9.656;2023-04-25T03:34:10;2.73;;;2.53;;
4365;SDS011;2196;47.422;9.656;2023-04-25T03:36:39;2.97;;;2.77;;
4365;SDS011;2196;47.422;9.656;2023-04-25T03:39:08;2.93;;;1.90;;
4365;SDS011;2196;47.422;9.656;2023-04-25T03:41:35;2.60;;;2.50;;
4365;SDS011;2196;47.422;9.656;2023-04-25T03:44:02;1.67;;;1.57;;
4365;SDS011;2196;47.422;9.656;2023-04-25T03:46:29;3.13;;;2.17;;
4365;SDS011;2196;47.422;9.656;2023-04-25T03:48:56;1.93;;;1.83;;
4365;SDS011;2196;47.422;9.656;2023-04-25T03:51:24;3.27;;;2.70;;
4365;SDS011;2196;47.422;9.656;2023-04-25T03:53:51;4.37;;;3.00;;
4365;SDS011;2196;47.422;9.656;2023-04-25T03:56:20;7.60;;;3.63;;
4365;SDS011;2196;47.422;9.656;2023-04-25T03:58:47;3.47;;;3.27;;
4365;SDS011;2196;47.422;9.656;2023-04-25T04:01:14;3.53;;;3.33;;
4365;SDS011;2196;47.422;9.656;2023-04-25T04:03:41;3.73;;;3.40;;
4365;SDS011;2196;47.422;9.656;2023-04-25T04:06:08;5.07;;;3.60;;
4365;SDS011;2196;47.422;9.656;2023-04-25T04:08:35;5.87;;;3.37;;
4365;SDS011;2196;47.422;9.656;2023-04-25T04:11:02;4.30;;;3.87;;
4365;SDS011;2196;47.422;9.656;2023-04-25T04:13:31;3.70;;;3.13;;
4365;SDS011;2196;47.422;9.656;2023-04-25T04:15:58;3.47;;;3.23;;
4365;SDS011;2196;47.422;9.656;2023-04-25T04:18:25;2.67;;;2.57;;
4365;SDS011;2196;47.422;9.656;2023-04-25T04:20:52;4.10;;;3.80;;
4365;SDS011;2196;47.422;9.656;2023-04-25T04:23:19;6.13;;;3.83;;
4365;SDS011;2196;47.422;9.656;2023-04-25T04:25:47;3.53;;;3.23;;
4365;SDS011;2196;47.422;9.656;2023-04-25T04:28:14;3.50;;;3.20;;
4365;SDS011;2196;47.422;9.656;2023-04-25T04:30:44;3.90;;;3.60;;
4365;SDS011;2196;47.422;9.656;2023-04-25T04:33:12;4.30;;;4.10;;
4365;SDS011;2196;47.422;9.656;2023-04-25T04:35:40;4.03;;;3.57;;
4365;SDS011;2196;47.422;9.656;2023-04-25T04:38:08;3.77;;;2.87;;
4365;SDS011;2196;47.422;9.656;2023-04-25T04:40:35;4.37;;;3.97;;
4365;SDS011;2196;47.422;9.656;2023-04-25T04:43:03;4.00;;;3.70;;
4365;SDS011;2196;47.422;9.656;2023-04-25T04:45:30;4.00;;;3.60;;
4365;SDS011;2196;47.422;9.656;2023-04-25T04:47:59;4.07;;;3.87;;
4365;SDS011;2196;47.422;9.656;2023-04-25T04:50:27;4.17;;;3.87;;
4365;SDS011;2196;47.422;9.656;2023-04-25T04:52:54;4.20;;;3.90;;
4365;SDS011;2196;47.422;9.656;2023-04-25T04:55:21;4.73;;;4.20;;
4365;SDS011;2196;47.422;9.656;2023-04-25T04:57:48;4.43;;;4.03;;
4365;SDS011;2196;47.422;9.656;2023-04-25T05:00:15;5.17;;;4.13;;
4365;SDS011;2196;47.422;9.656;2023-04-25T05:02:43;4.20;;;3.80;;
4365;SDS011;2196;47.422;9.656;2023-04-25T05:05:11;4.53;;;3.27;;
4365;SDS011;2196;47.422;9.656;2023-04-25T05:07:38;3.40;;;2.97;;
4365;SDS011;2196;47.422;9.656;2023-04-25T05:10:05;3.37;;;3.17;;
4365;SDS011;2196;47.422;9.656;2023-04-25T05:12:33;3.80;;;3.30;;
4365;SDS011;2196;47.422;9.656;2023-04-25T05:15:00;2.90;;;2.67;;
4365;SDS011;2196;47.422;9.656;2023-04-25T05:17:27;5.87;;;2.50;;
4365;SDS011;2196;47.422;9.656;2023-04-25T05:19:54;4.50;;;3.40;;
4365;SDS011;2196;47.422;9.656;2023-04-25T05:22:25;2.57;;;2.47;;
4365;SDS011;2196;47.422;9.656;2023-04-25T05:24:52;2.97;;;2.87;;
4365;SDS011;2196;47.422;9.656;2023-04-25T05:27:19;3.33;;;2.40;;
4365;SDS011;2196;47.422;9.656;2023-04-25T05:29:50;2.70;;;2.50;;
4365;SDS011;2196;47.422;9.656;2023-04-25T05:32:18;3.00;;;2.67;;
4365;SDS011;2196;47.422;9.656;2023-04-25T05:34:45;2.67;;;2.27;;
4365;SDS011;2196;47.422;9.656;2023-04-25T05:37:12;2.63;;;2.40;;
4365;SDS011;2196;47.422;9.656;2023-04-25T05:39:40;3.80;;;3.50;;
4365;SDS011;2196;47.422;9.656;2023-04-25T05:42:07;3.97;;;3.47;;
4365;SDS011;2196;47.422;9.656;2023-04-25T05:44:35;2.40;;;2.30;;
4365;SDS011;2196;47.422;9.656;2023-04-25T05:47:02;3.80;;;3.60;;
4365;SDS011;2196;47.422;9.656;2023-04-25T05:49:30;3.00;;;2.70;;
4365;SDS011;2196;47.422;9.656;2023-04-25T05:51:57;2.47;;;2.37;;
4365;SDS011;2196;47.422;9.656;2023-04-25T05:54:24;4.30;;;3.73;;
4365;SDS011;2196;47.422;9.656;2023-04-25T05:56:52;3.83;;;2.80;;
4365;SDS011;2196;47.422;9.656;2023-04-25T05:59:20;4.73;;;2.60;;
4365;SDS011;2196;47.422;9.656;2023-04-25T06:01:53;2.87;;;2.70;;
4365;SDS011;2196;47.422;9.656;2023-04-25T06:04:21;1.87;;;1.80;;
4365;SDS011;2196;47.422;9.656;2023-04-25T06:06:48;1.60;;;1.50;;
4365;SDS011;2196;47.422;9.656;2023-04-25T06:09:15;3.73;;;1.90;;
4365;SDS011;2196;47.422;9.656;2023-04-25T06:11:42;4.63;;;2.03;;
4365;SDS011;2196;47.422;9.656;2023-04-25T06:14:10;5.80;;;1.93;;
4365;SDS011;2196;47.422;9.656;2023-04-25T06:16:37;6.20;;;2.60;;
4365;SDS011;2196;47.422;9.656;2023-04-25T06:19:04;2.63;;;2.07;;
4365;SDS011;2196;47.422;9.656;2023-04-25T06:21:31;4.47;;;1.60;;
4365;SDS011;2196;47.422;9.656;2023-04-25T06:23:58;2.80;;;1.90;;
4365;SDS011;2196;47.422;9.656;2023-04-25T06:26:24;1.87;;;1.77;;
4365;SDS011;2196;47.422;9.656;2023-04-25T06:28:51;1.80;;;1.70;;
4365;SDS011;2196;47.422;9.656;2023-04-25T06:31:20;4.03;;;1.90;;
4365;SDS011;2196;47.422;9.656;2023-04-25T06:33:47;5.10;;;1.50;;
4365;SDS011;2196;47.422;9.656;2023-04-25T06:36:14;2.50;;;1.30;;
4365;SDS011;2196;47.422;9.656;2023-04-25T06:38:41;3.90;;;1.93;;
4365;SDS011;2196;47.422;9.656;2023-04-25T06:41:08;3.07;;;1.90;;
4365;SDS011;2196;47.422;9.656;2023-04-25T06:43:35;2.37;;;2.10;;
4365;SDS011;2196;47.422;9.656;2023-04-25T06:46:02;6.13;;;2.03;;
4365;SDS011;2196;47.422;9.656;2023-04-25T06:48:30;3.40;;;1.80;;
4365;SDS011;2196;47.422;9.656;2023-04-25T06:50:57;2.17;;;1.87;;
4365;SDS011;2196;47.422;9.656;2023-04-25T06:53:24;1.93;;;1.53;;
4365;SDS011;2196;47.422;9.656;2023-04-25T06:55:51;5.63;;;1.77;;
4365;SDS011;2196;47.422;9.656;2023-04-25T06:58:18;2.47;;;1.90;;
4365;SDS011;2196;47.422;9.656;2023-04-25T07:00:45;0.97;;;0.97;;
4365;SDS011;2196;47.422;9.656;2023-04-25T07:03:12;1.90;;;0.80;;
4365;SDS011;2196;47.422;9.656;2023-04-25T07:05:40;2.93;;;1.40;;
4365;SDS011;2196;47.422;9.656;2023-04-25T07:08:07;2.47;;;1.27;;
4365;SDS011;2196;47.422;9.656;2023-04-25T07:10:34;1.70;;;1.43;;
4365;SDS011;2196;47.422;9.656;2023-04-25T07:13:01;1.97;;;1.70;;
4365;SDS011;2196;47.422;9.656;2023-04-25T07:15:28;1.00;;;1.00;;
4365;SDS011;2196;47.422;9.656;2023-04-25T07:17:55;2.10;;;1.53;;
4365;SDS011;2196;47.422;9.656;2023-04-25T07:20:21;1.50;;;1.03;;
4365;SDS011;2196;47.422;9.656;2023-04-25T07:22:50;1.33;;;0.80;;
4365;SDS011;2196;47.422;9.656;2023-04-25T07:25:17;1.03;;;0.87;;
4365;SDS011;2196;47.422;9.656;2023-04-25T07:27:44;1.80;;;0.80;;
4365;SDS011;2196;47.422;9.656;2023-04-25T07:30:11;0.60;;;0.60;;
4365;SDS011;2196;47.422;9.656;2023-04-25T07:32:38;2.20;;;0.90;;
4365;SDS011;2196;47.422;9.656;2023-04-25T07:35:06;1.13;;;1.13;;
4365;SDS011;2196;47.422;9.656;2023-04-25T07:37:33;0.90;;;0.90;;
4365;SDS011;2196;47.422;9.656;2023-04-25T07:40:02;3.83;;;1.13;;
4365;SDS011;2196;47.422;9.656;2023-04-25T07:42:30;0.90;;;0.90;;
4365;SDS011;2196;47.422;9.656;2023-04-25T07:44:57;2.87;;;1.13;;
4365;SDS011;2196;47.422;9.656;2023-04-25T07:47:26;1.97;;;1.53;;
4365;SDS011;2196;47.422;9.656;2023-04-25T07:49:53;3.10;;;1.43;;
4365;SDS011;2196;47.422;9.656;2023-04-25T07:52:21;1.77;;;0.83;;
4365;SDS011;2196;47.422;9.656;2023-04-25T07:54:51;3.67;;;1.30;;
4365;SDS011;2196;47.422;9.656;2023-04-25T07:57:19;2.60;;;1.13;;
4365;SDS011;2196;47.422;9.656;2023-04-25T07:59:46;3.70;;;1.00;;
4365;SDS011;2196;47.422;9.656;2023-04-25T08:02:13;1.40;;;1.00;;
4365;SDS011;2196;47.422;9.656;2023-04-25T08:04:40;1.57;;;0.73;;
4365;SDS011;2196;47.422;9.656;2023-04-25T08:07:07;4.13;;;1.10;;
4365;SDS011;2196;47.422;9.656;2023-04-25T08:09:34;1.60;;;1.50;;
4365;SDS011;2196;47.422;9.656;2023-04-25T08:12:01;0.83;;;0.83;;
4365;SDS011;2196;47.422;9.656;2023-04-25T08:14:30;0.93;;;0.90;;
4365;SDS011;2196;47.422;9.656;2023-04-25T08:17:00;1.57;;;0.93;;
4365;SDS011;2196;47.422;9.656;2023-04-25T08:19:28;2.33;;;0.90;;
4365;SDS011;2196;47.422;9.656;2023-04-25T08:21:55;1.43;;;1.20;;
4365;SDS011;2196;47.422;9.656;2023-04-25T08:24:22;1.20;;;1.20;;
4365;SDS011;2196;47.422;9.656;2023-04-25T08:26:49;1.43;;;0.80;;
4365;SDS011;2196;47.422;9.656;2023-04-25T08:29:17;2.27;;;0.93;;
4365;SDS011;2196;47.422;9.656;2023-04-25T08:31:45;1.27;;;0.90;;
4365;SDS011;2196;47.422;9.656;2023-04-25T08:34:13;2.90;;;1.13;;
4365;SDS011;2196;47.422;9.656;2023-04-25T08:36:40;1.23;;;0.93;;
4365;SDS011;2196;47.422;9.656;2023-04-25T08:39:07;3.07;;;1.60;;
4365;SDS011;2196;47.422;9.656;2023-04-25T08:41:34;3.80;;;1.13;;
4365;SDS011;2196;47.422;9.656;2023-04-25T08:44:03;2.20;;;0.70;;
4365;SDS011;2196;47.422;9.656;2023-04-25T08:46:31;1.83;;;1.07;;
4365;SDS011;2196;47.422;9.656;2023-04-25T08:49:01;0.70;;;0.70;;
4365;SDS011;2196;47.422;9.656;2023-04-25T08:51:30;2.30;;;1.17;;
4365;SDS011;2196;47.422;9.656;2023-04-25T08:54:00;6.93;;;1.30;;
4365;SDS011;2196;47.422;9.656;2023-04-25T08:56:34;1.47;;;1.03;;
4365;SDS011;2196;47.422;9.656;2023-04-25T08:59:01;1.43;;;1.20;;
4365;SDS011;2196;47.422;9.656;2023-04-25T09:01:28;1.93;;;1.03;;
4365;SDS011;2196;47.422;9.656;2023-04-25T09:03:56;2.97;;;0.60;;
4365;SDS011;2196;47.422;9.656;2023-04-25T09:06:25;0.60;;;0.60;;
4365;SDS011;2196;47.422;9.656;2023-04-25T09:08:53;1.13;;;0.50;;
4365;SDS011;2196;47.422;9.656;2023-04-25T09:11:20;1.60;;;1.47;;
4365;SDS011;2196;47.422;9.656;2023-04-25T09:13:47;1.23;;;0.53;;
4365;SDS011;2196;47.422;9.656;2023-04-25T09:16:14;1.90;;;0.83;;
4365;SDS011;2196;47.422;9.656;2023-04-25T09:18:43;1.63;;;0.90;;
4365;SDS011;2196;47.422;9.656;2023-04-25T09:21:13;0.50;;;0.50;;
4365;SDS011;2196;47.422;9.656;2023-04-25T09:23:43;0.93;;;0.90;;
4365;SDS011;2196;47.422;9.656;2023-04-25T09:26:13;1.20;;;0.50;;
4365;SDS011;2196;47.422;9.656;2023-04-25T09:28:41;2.57;;;0.90;;
4365;SDS011;2196;47.422;9.656;2023-04-25T09:31:09;0.67;;;0.67;;
4365;SDS011;2196;47.422;9.656;2023-04-25T09:33:36;1.93;;;0.50;;
4365;SDS011;2196;47.422;9.656;2023-04-25T09:36:04;0.70;;;0.43;;
4365;SDS011;2196;47.422;9.656;2023-04-25T09:38:33;0.40;;;0.40;;
4365;SDS011;2196;47.422;9.656;2023-04-25T09:41:08;0.63;;;0.37;;
4365;SDS011;2196;47.422;9.656;2023-04-25T09:43:35;0.30;;;0.30;;
4365;SDS011;2196;47.422;9.656;2023-04-25T09:46:04;0.53;;;0.53;;
4365;SDS011;2196;47.422;9.656;2023-04-25T09:48:34;0.93;;;0.63;;
4365;SDS011;2196;47.422;9.656;2023-04-25T09:51:05;2.40;;;0.97;;
4365;SDS011;2196;47.422;9.656;2023-04-25T09:53:33;1.20;;;0.80;;
4365;SDS011;2196;47.422;9.656;2023-04-25T09:56:00;1.07;;;1.03;;
4365;SDS011;2196;47.422;9.656;2023-04-25T09:58:33;0.87;;;0.87;;
4365;SDS011;2196;47.422;9.656;2023-04-25T10:01:00;0.70;;;0.70;;
4365;SDS011;2196;47.422;9.656;2023-04-25T10:03:29;0.80;;;0.70;;
4365;SDS011;2196;47.422;9.656;2023-04-25T10:05:57;2.00;;;0.60;;
4365;SDS011;2196;47.422;9.656;2023-04-25T10:08:27;1.97;;;1.03;;
4365;SDS011;2196;47.422;9.656;2023-04-25T10:10:58;1.07;;;0.90;;
4365;SDS011;2196;47.422;9.656;2023-04-25T10:13:28;2.17;;;1.20;;
4365;SDS011;2196;47.422;9.656;2023-04-25T10:15:58;1.23;;;0.70;;
4365;SDS011;2196;47.422;9.656;2023-04-25T10:18:26;1.90;;;0.80;;
4365;SDS011;2196;47.422;9.656;2023-04-25T10:20:53;1.50;;;0.70;;
4365;SDS011;2196;47.422;9.656;2023-04-25T10:23:22;1.30;;;0.67;;
4365;SDS011;2196;47.422;9.656;2023-04-25T10:25:50;1.33;;;0.60;;
4365;SDS011;2196;47.422;9.656;2023-04-25T10:28:18;1.90;;;1.03;;
4365;SDS011;2196;47.422;9.656;2023-04-25T10:30:59;2.40;;;0.70;;
4365;SDS011;2196;47.422;9.656;2023-04-25T10:33:33;0.93;;;0.70;;
4365;SDS011;2196;47.422;9.656;2023-04-25T10:36:08;5.10;;;1.13;;
4365;SDS011;2196;47.422;9.656;2023-04-25T10:38:36;0.97;;;0.97;;
4365;SDS011;2196;47.422;9.656;2023-04-25T10:41:04;0.87;;;0.73;;
4365;SDS011;2196;47.422;9.656;2023-04-25T10:43:34;0.63;;;0.63;;
4365;SDS011;2196;47.422;9.656;2023-04-25T10:46:19;0.50;;;0.50;;
4365;SDS011;2196;47.422;9.656;2023-04-25T10:48:49;0.87;;;0.70;;
4365;SDS011;2196;47.422;9.656;2023-04-25T10:51:19;0.57;;;0.57;;
4365;SDS011;2196;47.422;9.656;2023-04-25T10:53:47;6.67;;;6.10;;
4365;SDS011;2196;47.422;9.656;2023-04-25T10:56:25;5.90;;;5.50;;
4365;SDS011;2196;47.422;9.656;2023-04-25T10:59:02;16.20;;;14.57;;
4365;SDS011;2196;47.422;9.656;2023-04-25T11:01:36;5.30;;;4.83;;
4365;SDS011;2196;47.422;9.656;2023-04-25T11:04:05;2.63;;;2.10;;
4365;SDS011;2196;47.422;9.656;2023-04-25T11:06:34;2.77;;;2.33;;
4365;SDS011;2196;47.422;9.656;2023-04-25T11:09:12;2.13;;;1.30;;
4365;SDS011;2196;47.422;9.656;2023-04-25T11:11:39;0.30;;;0.30;;
4365;SDS011;2196;47.422;9.656;2023-04-25T11:14:06;2.63;;;0.73;;
4365;SDS011;2196;47.422;9.656;2023-04-25T11:16:33;0.70;;;0.60;;
4365;SDS011;2196;47.422;9.656;2023-04-25T11:19:02;1.10;;;1.00;;
4365;SDS011;2196;47.422;9.656;2023-04-25T11:21:30;1.13;;;0.60;;
4365;SDS011;2196;47.422;9.656;2023-04-25T11:23:57;0.40;;;0.40;;
4365;SDS011;2196;47.422;9.656;2023-04-25T11:26:26;0.57;;;0.50;;
4365;SDS011;2196;47.422;9.656;2023-04-25T11:28:56;0.97;;;0.43;;
4365;SDS011;2196;47.422;9.656;2023-04-25T11:31:25;0.40;;;0.40;;
4365;SDS011;2196;47.422;9.656;2023-04-25T11:33:54;0.60;;;0.30;;
4365;SDS011;2196;47.422;9.656;2023-04-25T11:36:23;1.90;;;0.60;;
4365;SDS011;2196;47.422;9.656;2023-04-25T11:38:51;1.43;;;0.60;;
4365;SDS011;2196;47.422;9.656;2023-04-25T11:41:18;0.70;;;0.40;;
4365;SDS011;2196;47.422;9.656;2023-04-25T11:43:45;1.20;;;0.40;;
4365;SDS011;2196;47.422;9.656;2023-04-25T11:46:12;1.40;;;1.10;;
4365;SDS011;2196;47.422;9.656;2023-04-25T11:48:39;2.73;;;1.20;;
4365;SDS011;2196;47.422;9.656;2023-04-25T11:51:08;0.47;;;0.47;;
4365;SDS011;2196;47.422;9.656;2023-04-25T11:53:35;0.23;;;0.23;;
4365;SDS011;2196;47.422;9.656;2023-04-25T11:56:02;0.30;;;0.20;;
4365;SDS011;2196;47.422;9.656;2023-04-25T12:01:24;3.20;;;0.20;;
4365;SDS011;2196;47.422;9.656;2023-04-25T12:03:53;0.20;;;0.10;;
4365;SDS011;2196;47.422;9.656;2023-04-25T12:06:21;0.10;;;0.10;;
4365;SDS011;2196;47.422;9.656;2023-04-25T12:08:58;0.10;;;0.10;;
4365;SDS011;2196;47.422;9.656;2023-04-25T12:11:26;1.90;;;0.10;;
4365;SDS011;2196;47.422;9.656;2023-04-25T12:13:53;0.20;;;0.20;;
4365;SDS011;2196;47.422;9.656;2023-04-25T12:16:20;0.10;;;0.10;;
4365;SDS011;2196;47.422;9.656;2023-04-25T12:18:47;0.10;;;0.10;;
4365;SDS011;2196;47.422;9.656;2023-04-25T12:21:14;0.10;;;0.10;;
4365;SDS011;2196;47.422;9.656;2023-04-25T12:23:42;0.10;;;0.10;;
4365;SDS011;2196;47.422;9.656;2023-04-25T12:26:09;0.20;;;0.20;;
4365;SDS011;2196;47.422;9.656;2023-04-25T12:28:36;0.30;;;0.20;;
4365;SDS011;2196;47.422;9.656;2023-04-25T12:31:04;0.63;;;0.33;;
4365;SDS011;2196;47.422;9.656;2023-04-25T12:33:32;0.60;;;0.60;;
4365;SDS011;2196;47.422;9.656;2023-04-25T12:36:00;2.60;;;2.03;;
4365;SDS011;2196;47.422;9.656;2023-04-25T12:38:35;0.43;;;0.10;;
4365;SDS011;2196;47.422;9.656;2023-04-25T12:41:04;0.63;;;0.37;;
4365;SDS011;2196;47.422;9.656;2023-04-25T12:43:31;0.30;;;0.30;;
4365;SDS011;2196;47.422;9.656;2023-04-25T12:45:58;0.30;;;0.30;;
4365;SDS011;2196;47.422;9.656;2023-04-25T12:48:25;0.20;;;0.20;;
4365;SDS011;2196;47.422;9.656;2023-04-25T12:50:52;0.50;;;0.23;;
4365;SDS011;2196;47.422;9.656;2023-04-25T12:53:20;0.10;;;0.10;;
4365;SDS011;2196;47.422;9.656;2023-04-25T12:55:49;0.17;;;0.10;;
4365;SDS011;2196;47.422;9.656;2023-04-25T12:58:18;0.67;;;0.13;;
4365;SDS011;2196;47.422;9.656;2023-04-25T13:00:45;0.10;;;0.10;;
4365;SDS011;2196;47.422;9.656;2023-04-25T13:03:13;0.50;;;0.50;;
4365;SDS011;2196;47.422;9.656;2023-04-25T13:05:40;0.50;;;0.30;;
4365;SDS011;2196;47.422;9.656;2023-04-25T13:08:08;3.03;;;0.50;;
4365;SDS011;2196;47.422;9.656;2023-04-25T13:10:35;0.30;;;0.30;;
4365;SDS011;2196;47.422;9.656;2023-04-25T13:13:03;0.63;;;0.30;;
4365;SDS011;2196;47.422;9.656;2023-04-25T13:15:31;0.60;;;0.30;;
4365;SDS011;2196;47.422;9.656;2023-04-25T13:17:58;2.93;;;0.50;;
4365;SDS011;2196;47.422;9.656;2023-04-25T13:20:25;2.67;;;1.70;;
4365;SDS011;2196;47.422;9.656;2023-04-25T13:22:52;0.67;;;0.47;;
4365;SDS011;2196;47.422;9.656;2023-04-25T13:25:20;0.30;;;0.20;;
4365;SDS011;2196;47.422;9.656;2023-04-25T13:27:47;0.20;;;0.20;;
4365;SDS011;2196;47.422;9.656;2023-04-25T13:30:15;0.53;;;0.10;;
4365;SDS011;2196;47.422;9.656;2023-04-25T13:32:43;0.97;;;0.30;;
4365;SDS011;2196;47.422;9.656;2023-04-25T13:35:11;0.97;;;0.27;;
4365;SDS011;2196;47.422;9.656;2023-04-25T13:37:39;0.97;;;0.20;;
4365;SDS011;2196;47.422;9.656;2023-04-25T13:40:07;1.40;;;0.20;;
4365;SDS011;2196;47.422;9.656;2023-04-25T13:42:35;1.50;;;0.20;;
4365;SDS011;2196;47.422;9.656;2023-04-25T13:45:03;0.20;;;0.20;;
4365;SDS011;2196;47.422;9.656;2023-04-25T13:47:30;0.30;;;0.30;;
4365;SDS011;2196;47.422;9.656;2023-04-25T13:49:58;2.27;;;0.80;;
4365;SDS011;2196;47.422;9.656;2023-04-25T13:52:27;8.47;;;6.77;;
4365;SDS011;2196;47.422;9.656;2023-04-25T13:54:55;11.73;;;10.07;;
4365;SDS011;2196;47.422;9.656;2023-04-25T13:57:23;1.97;;;1.87;;
4365;SDS011;2196;47.422;9.656;2023-04-25T13:59:50;1.53;;;1.33;;
4365;SDS011;2196;47.422;9.656;2023-04-25T14:02:18;1.80;;;0.60;;
4365;SDS011;2196;47.422;9.656;2023-04-25T14:04:44;2.60;;;0.93;;
4365;SDS011;2196;47.422;9.656;2023-04-25T14:07:13;1.37;;;1.27;;
4365;SDS011;2196;47.422;9.656;2023-04-25T14:09:41;4.30;;;1.77;;
4365;SDS011;2196;47.422;9.656;2023-04-25T14:12:08;2.17;;;1.10;;
4365;SDS011;2196;47.422;9.656;2023-04-25T14:14:35;0.50;;;0.50;;
4365;SDS011;2196;47.422;9.656;2023-04-25T14:17:02;0.60;;;0.60;;
4365;SDS011;2196;47.422;9.656;2023-04-25T14:19:30;0.50;;;0.50;;
4365;SDS011;2196;47.422;9.656;2023-04-25T14:21:57;0.50;;;0.50;;
4365;SDS011;2196;47.422;9.656;2023-04-25T14:24:25;0.40;;;0.30;;
4365;SDS011;2196;47.422;9.656;2023-04-25T14:26:52;1.10;;;0.40;;
4365;SDS011;2196;47.422;9.656;2023-04-25T14:29:19;1.17;;;0.30;;
4365;SDS011;2196;47.422;9.656;2023-04-25T14:31:46;0.60;;;0.60;;
4365;SDS011;2196;47.422;9.656;2023-04-25T14:34:13;0.60;;;0.60;;
4365;SDS011;2196;47.422;9.656;2023-04-25T14:36:40;0.50;;;0.50;;
4365;SDS011;2196;47.422;9.656;2023-04-25T14:39:07;2.00;;;0.30;;
4365;SDS011;2196;47.422;9.656;2023-04-25T14:41:36;0.30;;;0.30;;
4365;SDS011;2196;47.422;9.656;2023-04-25T14:44:03;1.60;;;0.30;;
4365;SDS011;2196;47.422;9.656;2023-04-25T14:46:30;0.30;;;0.30;;
4365;SDS011;2196;47.422;9.656;2023-04-25T14:48:58;0.77;;;0.60;;
4365;SDS011;2196;47.422;9.656;2023-04-25T14:51:25;0.40;;;0.30;;
4365;SDS011;2196;47.422;9.656;2023-04-25T14:53:52;0.40;;;0.40;;
4365;SDS011;2196;47.422;9.656;2023-04-25T14:56:19;2.37;;;0.80;;
4365;SDS011;2196;47.422;9.656;2023-04-25T14:58:47;0.60;;;0.30;;
4365;SDS011;2196;47.422;9.656;2023-04-25T15:01:14;0.37;;;0.37;;
4365;SDS011;2196;47.422;9.656;2023-04-25T15:03:41;0.30;;;0.30;;
4365;SDS011;2196;47.422;9.656;2023-04-25T15:06:08;0.40;;;0.40;;
4365;SDS011;2196;47.422;9.656;2023-04-25T15:08:35;0.40;;;0.40;;
4365;SDS011;2196;47.422;9.656;2023-04-25T15:11:02;0.77;;;0.40;;
4365;SDS011;2196;47.422;9.656;2023-04-25T15:13:29;1.40;;;0.33;;
4365;SDS011;2196;47.422;9.656;2023-04-25T15:15:58;0.53;;;0.53;;
4365;SDS011;2196;47.422;9.656;2023-04-25T15:18:25;0.27;;;0.20;;
4365;SDS011;2196;47.422;9.656;2023-04-25T15:20:52;0.20;;;0.20;;
4365;SDS011;2196;47.422;9.656;2023-04-25T15:23:20;0.67;;;0.37;;